Yaupon Beach, North Carolina
Current Conditions -  °F | °C
As of 5:15 AM on Friday 21 Nov 2014 (Local Time) from KSUT Reporting Station
Clear Clear  
Wind Chill:   Ceiling: Unl
Heat Index:   Visibility: 10mi
Dew Point:   Wind: 6mph
Humidity: 62%   Direction: 320°NW
Pressure: 30.25"   Gusts: NA
Location:  33.9216°N, 78.1244°W
Report Text: KSUT 211015Z AUTO 32005KT 10SM CLR 08/02 A3025 RMK AO2 T00830015
Loading
Personal Weather Stations






























Interactive Weather Map New forecast layout! Learn more

10-Day Weather Forecast

Advertisements
Track Severe Weather on mobile